Downstream station:
SHEF ID: NFSM7 N Fork Spring River nr Purcell, MO
STATION TYPE:
STAGE RIV-FLOW
ft cfs
Ccp-Rev Ccp-Rev
(US/Central)
04/05 00:00 4.76 427
04/05 01:00 4.82 446
04/05 02:00 4.87 463
04/05 03:00 4.90 473
04/05 04:00 4.91 476
04/05 05:00 4.91 476
04/05 06:00 4.89 470
04/05 07:00 4.87 463
04/05 08:00 4.83 450
04/05 09:00 4.80 440
04/05 10:00 4.77 430
04/05 11:00 4.73 417
04/05 12:00 4.70 408
04/05 13:00 4.68 402
04/05 14:00 4.67 399
04/05 15:00 4.67 399
04/05 16:00 4.67 399
04/05 17:00 4.67 399
04/05 18:00 4.67 399
04/05 19:00 4.69 405
04/05 20:00 4.68 402
04/05 21:00 4.68 402
04/05 22:00 4.68 402
04/05 23:00 4.67 399